Terminal Aerodrome Forecast
Issued by NWS

Home | Current Version | Previous Version | Text Only | Print | Product List | Glossary On
Versions: 1 2 3 4 5 6 7 8 9 10 11 12 13 14
000
FTUS45 KABQ 292334
TAFSAF
TAF
KSAF 292334Z 3000/3024 33011KT P6SM VCSH BKN070
     FM300200 12007KT P6SM SCT070 SCT150
     FM300800 36009KT P6SM SCT010
      TEMPO 3008/3012 BKN010
     FM301700 25008KT P6SM FEW150 SCT250
     FM302000 25012G22KT P6SM FEW150 SCT250=

USA.gov is the U.S. government's official web portal to all federal, state and local government web resources and services.